Time;durP1;ratioP1;P1;durP2;ratioP2;P2;SDS_P1;SDS_P2;PMS_P1;PMS_P2;Temp;Humidity;BMP_temperature;BMP_pressure;BME280_temperature;BME280_humidity;BME280_pressure;Samples;Min_cycle;Max_cycle;Signal;HPM_P1;HPM_P2
2022/07/19 00:01:00;;;;;;;2.65;1.30;;;17.00;99.90;;;;;;5247587;28;20053;-72
2022/07/19 00:03:31;;;;;;;5.68;1.48;;;17.00;99.90;;;;;;5247827;28;20024;-76
2022/07/19 00:06:01;;;;;;;6.88;1.92;;;17.10;99.90;;;;;;5247745;28;20444;-74
2022/07/19 00:08:32;;;;;;;4.80;1.38;;;17.10;99.90;;;;;;5247741;28;20028;-74
2022/07/19 00:11:03;;;;;;;9.75;1.80;;;17.20;99.90;;;;;;5247518;28;20040;-77
2022/07/19 00:13:34;;;;;;;4.97;1.30;;;17.30;99.90;;;;;;5247508;28;20017;-72
2022/07/19 00:16:05;;;;;;;3.40;1.27;;;17.20;99.90;;;;;;5247430;28;20116;-77
2022/07/19 00:18:36;;;;;;;4.55;1.40;;;17.30;99.90;;;;;;5246185;28;20031;-72
2022/07/19 00:21:07;;;;;;;3.55;1.23;;;17.00;99.90;;;;;;5247647;28;20040;-72
2022/07/19 00:23:38;;;;;;;3.63;1.38;;;16.90;99.90;;;;;;5247521;28;20042;-72
2022/07/19 00:26:08;;;;;;;5.28;1.67;;;17.10;99.90;;;;;;5246147;28;20020;-72
2022/07/19 00:28:39;;;;;;;2.67;1.38;;;17.10;99.90;;;;;;5247476;28;20024;-72
2022/07/19 00:31:10;;;;;;;3.45;1.58;;;16.90;99.90;;;;;;5247353;28;20048;-72
2022/07/19 00:33:41;;;;;;;6.55;1.48;;;17.10;99.90;;;;;;5247244;28;20032;-79
2022/07/19 00:36:13;;;;;;;6.22;1.48;;;;;;;;;;5247221;28;20384;-72
2022/07/19 00:38:44;;;;;;;3.60;1.55;;;17.20;99.90;;;;;;5247358;28;20027;-78
2022/07/19 00:41:14;;;;;;;3.15;1.50;;;17.30;99.90;;;;;;5247300;28;20469;-72
2022/07/19 00:43:45;;;;;;;5.75;1.88;;;17.50;99.90;;;;;;5246179;28;20082;-73
2022/07/19 00:46:20;;;;;;;6.35;2.10;;;17.80;99.90;;;;;;5247306;28;20017;-73
2022/07/19 00:48:51;;;;;;;3.90;1.90;;;17.90;99.90;;;;;;5247551;28;20025;-78
2022/07/19 00:51:21;;;;;;;4.70;1.98;;;17.90;99.90;;;;;;5247017;28;20019;-80
2022/07/19 00:53:54;;;;;;;6.22;1.95;;;18.30;99.90;;;;;;5247292;28;20086;-72
2022/07/19 00:56:26;;;;;;;6.25;2.22;;;18.20;99.90;;;;;;5247140;28;20029;-72
2022/07/19 00:58:59;;;;;;;6.25;2.10;;;18.30;99.90;;;;;;5247224;28;20052;-74
2022/07/19 01:01:31;;;;;;;5.03;1.88;;;18.40;99.90;;;;;;5246955;28;20385;-73
2022/07/19 01:04:02;;;;;;;4.30;1.65;;;18.50;99.90;;;;;;5247097;28;20504;-76
2022/07/19 01:06:33;;;;;;;3.13;1.70;;;18.60;99.90;;;;;;5247090;28;20488;-72
2022/07/19 01:09:04;;;;;;;5.57;2.72;;;18.90;99.90;;;;;;5247141;28;20028;-73
2022/07/19 01:11:35;;;;;;;7.28;1.88;;;19.20;99.90;;;;;;5245824;28;20569;-76
2022/07/19 01:14:06;;;;;;;4.60;2.17;;;19.20;99.90;;;;;;5246972;28;20063;-79
2022/07/19 01:16:42;;;;;;;3.45;1.83;;;19.50;99.90;;;;;;5245738;28;20086;-78
2022/07/19 01:19:14;;;;;;;5.32;2.03;;;19.50;99.90;;;;;;5247191;28;20099;-80
2022/07/19 01:21:45;;;;;;;5.45;2.42;;;19.60;99.90;;;;;;5246833;28;20048;-76
2022/07/19 01:24:15;;;;;;;6.68;2.90;;;19.70;99.90;;;;;;5246673;28;20113;-73
2022/07/19 01:26:46;;;;;;;6.45;2.75;;;19.70;99.90;;;;;;5246807;28;20111;-76
2022/07/19 01:29:17;;;;;;;5.30;2.10;;;19.80;99.90;;;;;;5246785;28;20021;-73
2022/07/19 01:31:48;;;;;;;9.52;2.47;;;19.80;99.90;;;;;;5246714;28;20036;-73
2022/07/19 01:34:19;;;;;;;3.90;2.30;;;19.70;99.90;;;;;;5246740;28;20037;-75
2022/07/19 01:36:50;;;;;;;6.00;2.85;;;19.80;99.90;;;;;;5246685;28;20601;-77
2022/07/19 01:39:21;;;;;;;3.05;2.35;;;19.80;99.90;;;;;;5246946;28;20028;-74
2022/07/19 01:41:51;;;;;;;2.85;2.08;;;19.90;99.90;;;;;;5246746;28;20036;-79
2022/07/19 01:44:22;;;;;;;4.72;2.33;;;20.00;99.90;;;;;;5246585;28;20025;-73
2022/07/19 01:46:53;;;;;;;5.28;1.70;;;19.90;99.90;;;;;;5246609;28;20376;-74
2022/07/19 01:49:23;;;;;;;8.10;2.50;;;20.00;99.90;;;;;;5246669;28;20104;-73
2022/07/19 01:51:55;;;;;;;7.18;2.55;;;20.00;99.90;;;;;;5246472;28;20028;-76
2022/07/19 01:54:26;;;;;;;5.22;1.35;;;19.90;99.90;;;;;;5245257;28;20028;-72
2022/07/19 01:56:56;;;;;;;4.15;1.60;;;19.90;99.90;;;;;;5246507;28;20036;-77
2022/07/19 01:59:27;;;;;;;7.68;1.40;;;20.10;99.90;;;;;;5246493;28;20017;-73
2022/07/19 02:01:58;;;;;;;4.20;1.55;;;20.10;99.90;;;;;;5246902;28;20044;-74
2022/07/19 02:04:29;;;;;;;4.63;1.92;;;20.00;99.90;;;;;;5250287;28;20025;-73
2022/07/19 02:07:00;;;;;;;6.25;1.98;;;20.00;99.90;;;;;;5250221;28;20016;-75
2022/07/19 02:09:30;;;;;;;4.38;1.60;;;20.10;99.90;;;;;;5248846;28;20073;-73
2022/07/19 02:12:01;;;;;;;4.47;1.27;;;19.90;99.90;;;;;;5250055;28;20032;-72
2022/07/19 02:14:32;;;;;;;5.07;1.40;;;20.10;99.90;;;;;;5249888;28;20531;-72
2022/07/19 02:17:03;;;;;;;2.03;0.85;;;20.00;99.90;;;;;;5249980;28;20093;-73
2022/07/19 02:19:34;;;;;;;2.20;0.95;;;20.00;99.90;;;;;;5249923;28;20016;-77
2022/07/19 02:22:04;;;;;;;3.15;1.40;;;20.10;99.90;;;;;;5249648;28;21000;-79
2022/07/19 02:24:35;;;;;;;5.28;2.00;;;20.10;99.90;;;;;;5250033;28;20021;-73
2022/07/19 02:27:06;;;;;;;3.95;1.80;;;20.00;99.90;;;;;;5249713;28;20033;-74
2022/07/19 02:29:37;;;;;;;4.07;2.28;;;20.00;99.90;;;;;;5249687;28;20027;-72
2022/07/19 02:32:08;;;;;;;4.88;2.20;;;19.90;99.90;;;;;;5249622;28;20024;-79
2022/07/19 02:34:39;;;;;;;3.30;1.50;;;20.10;99.90;;;;;;5249567;28;20032;-73
2022/07/19 02:37:10;;;;;;;3.53;2.00;;;20.00;99.90;;;;;;5249482;28;20032;-72
2022/07/19 02:39:41;;;;;;;3.88;1.50;;;20.20;99.90;;;;;;5249666;28;20017;-72
2022/07/19 02:42:11;;;;;;;3.10;1.17;;;20.10;99.90;;;;;;5249557;28;20012;-75
2022/07/19 02:44:42;;;;;;;3.90;2.40;;;20.10;99.90;;;;;;5249434;28;20016;-73
2022/07/19 02:47:13;;;;;;;7.47;4.13;;;20.10;99.90;;;;;;5248092;28;20084;-73
2022/07/19 02:49:44;;;;;;;10.55;6.68;;;20.00;99.90;;;;;;5248142;28;20032;-74
2022/07/19 02:52:14;;;;;;;7.00;4.30;;;20.10;99.90;;;;;;5249109;28;20078;-72
2022/07/19 02:54:45;;;;;;;10.70;6.00;;;20.10;99.90;;;;;;5249113;28;20032;-73
2022/07/19 02:57:16;;;;;;;11.18;5.97;;;20.00;99.90;;;;;;5249229;28;20542;-74
2022/07/19 02:59:46;;;;;;;10.60;5.60;;;20.10;99.90;;;;;;5249085;28;20468;-73
2022/07/19 03:02:17;;;;;;;6.88;4.85;;;20.10;99.90;;;;;;5248992;28;20092;-73
2022/07/19 03:04:48;;;;;;;5.35;3.75;;;20.10;99.90;;;;;;5248963;28;20454;-73
2022/07/19 03:07:19;;;;;;;4.95;2.92;;;20.10;99.90;;;;;;5247752;28;20063;-77
2022/07/19 03:09:50;;;;;;;5.90;2.67;;;20.10;99.90;;;;;;5248904;28;20059;-74
2022/07/19 03:12:21;;;;;;;3.83;2.50;;;20.10;99.90;;;;;;5248767;28;20024;-76
2022/07/19 03:14:51;;;;;;;3.78;2.35;;;20.30;99.90;;;;;;5248496;28;20545;-73
2022/07/19 03:17:22;;;;;;;4.43;1.95;;;20.40;99.90;;;;;;5248807;28;20083;-75
2022/07/19 03:19:53;;;;;;;6.50;3.10;;;20.30;99.90;;;;;;5248757;28;20031;-75
2022/07/19 03:22:24;;;;;;;7.70;3.92;;;20.30;99.90;;;;;;5248705;28;20067;-73
2022/07/19 03:24:56;;;;;;;7.10;3.70;;;20.30;99.90;;;;;;5248686;28;20024;-76
2022/07/19 03:27:27;;;;;;;4.90;3.53;;;20.20;99.90;;;;;;5248417;28;20464;-79
2022/07/19 03:29:58;;;;;;;4.35;2.97;;;20.30;99.90;;;;;;5248444;28;20078;-77
2022/07/19 03:32:29;;;;;;;6.28;2.67;;;20.20;99.90;;;;;;5248563;28;20032;-73
2022/07/19 03:35:00;;;;;;;4.32;2.55;;;20.20;99.90;;;;;;5248386;28;20020;-73
2022/07/19 03:37:30;;;;;;;5.70;1.60;;;20.20;99.90;;;;;;5246990;28;20404;-73
2022/07/19 03:40:02;;;;;;;10.00;4.05;;;20.30;99.90;;;;;;5248407;28;20085;-73
2022/07/19 03:42:32;;;;;;;6.82;4.47;;;20.40;99.90;;;;;;5248239;28;20028;-79
2022/07/19 03:45:04;;;;;;;6.70;2.60;;;20.70;99.90;;;;;;5248242;28;20074;-79
2022/07/19 03:47:35;;;;;;;5.55;2.10;;;20.60;99.90;;;;;;5248223;28;20036;-75
2022/07/19 03:50:06;;;;;;;7.53;4.38;;;20.50;99.90;;;;;;5248275;28;20012;-75
2022/07/19 03:52:37;;;;;;;6.78;4.95;;;20.50;99.90;;;;;;5247944;28;20028;-78
2022/07/19 03:55:08;;;;;;;9.70;5.35;;;20.50;99.90;;;;;;5247944;28;20017;-72
2022/07/19 03:57:39;;;;;;;9.70;4.97;;;20.50;99.90;;;;;;5247781;28;20044;-73
2022/07/19 04:00:10;;;;;;;7.80;3.92;;;20.70;99.90;;;;;;5247587;28;20028;-73
2022/07/19 04:02:41;;;;;;;10.05;6.30;;;20.90;99.90;;;;;;5247839;28;20504;-73
2022/07/19 04:05:12;;;;;;;8.50;5.75;;;21.10;99.90;;;;;;5247828;28;20033;-78
2022/07/19 04:07:42;;;;;;;8.07;5.13;;;21.40;99.90;;;;;;5247806;28;20027;-73
2022/07/19 04:10:13;;;;;;;7.45;3.97;;;21.50;99.90;;;;;;5247934;28;20021;-73
2022/07/19 04:12:44;;;;;;;5.40;2.85;;;21.60;99.90;;;;;;5247778;28;20020;-73
2022/07/19 04:15:15;;;;;;;3.53;1.75;;;21.70;99.90;;;;;;5247702;28;20028;-74
2022/07/19 04:17:45;;;;;;;2.35;1.13;;;21.80;99.90;;;;;;5247630;28;20037;-74
2022/07/19 04:20:16;;;;;;;2.08;0.60;;;21.60;99.90;;;;;;5247649;28;20021;-79
2022/07/19 04:22:47;;;;;;;6.53;1.00;;;21.60;99.90;;;;;;5247478;28;20024;-72
2022/07/19 04:25:18;;;;;;;3.13;1.40;;;21.80;99.90;;;;;;5246894;28;20111;-73
2022/07/19 04:27:49;;;;;;;4.72;1.73;;;21.50;99.90;;;;;;5247456;28;20016;-72
2022/07/19 04:30:20;;;;;;;4.57;1.20;;;21.60;99.90;;;;;;5247317;28;20039;-75
2022/07/19 04:32:51;;;;;;;4.88;2.25;;;21.40;99.90;;;;;;5247403;28;20396;-72
2022/07/19 04:35:22;;;;;;;4.82;2.58;;;21.50;99.90;;;;;;5247478;28;20021;-73
2022/07/19 04:37:53;;;;;;;6.70;2.90;;;21.60;99.90;;;;;;5247484;28;20391;-78
2022/07/19 04:40:23;;;;;;;8.18;2.78;;;21.70;99.90;;;;;;5247432;28;20119;-75
2022/07/19 04:42:54;;;;;;;6.38;1.70;;;21.60;99.90;;;;;;5247530;28;20081;-74
2022/07/19 04:45:25;;;;;;;2.33;1.10;;;21.30;99.90;;;;;;5245950;28;20159;-73
2022/07/19 04:47:56;;;;;;;4.25;1.13;;;21.20;99.90;;;;;;5247375;28;20025;-73
2022/07/19 04:50:27;;;;;;;3.53;0.95;;;21.60;99.90;;;;;;5247367;28;20029;-76
2022/07/19 04:52:57;;;;;;;2.83;0.90;;;21.90;99.90;;;;;;5247172;28;20025;-72
2022/07/19 05:10:55;;;;;;;2.70;1.50;;;22.00;99.90;;;;;;5309147;27;20663;-79
2022/07/19 05:13:25;;;;;;;4.20;1.70;;;22.60;99.90;;;;;;5308602;28;20031;-79
2022/07/19 05:15:57;;;;;;;2.65;0.80;;;22.60;99.90;;;;;;5308739;28;20374;-79
2022/07/19 05:18:27;;;;;;;3.08;0.90;;;22.50;99.90;;;;;;5290198;28;20032;-79
2022/07/19 05:20:58;;;;;;;3.75;1.05;;;22.50;99.90;;;;;;5308727;28;20034;-79
2022/07/19 05:23:29;;;;;;;2.20;0.80;;;22.60;99.90;;;;;;5308544;28;20027;-79
2022/07/19 05:26:00;;;;;;;5.90;0.88;;;22.50;99.90;;;;;;5290047;28;20027;-79
2022/07/19 05:28:30;;;;;;;4.35;1.13;;;22.70;99.90;;;;;;5290117;28;20031;-81
2022/07/19 05:31:02;;;;;;;5.28;2.35;;;22.80;99.90;;;;;;5308264;28;20019;-79
2022/07/19 05:33:33;;;;;;;5.05;1.00;;;22.90;99.90;;;;;;5308260;28;20359;-79
2022/07/19 05:36:04;;;;;;;4.57;0.80;;;22.80;99.90;;;;;;5308158;28;20018;-78
2022/07/19 05:38:35;;;;;;;4.90;0.80;;;22.90;99.90;;;;;;5307932;28;20035;-79
2022/07/19 05:41:07;;;;;;;1.70;0.70;;;22.90;99.90;;;;;;5308040;28;20110;-79
2022/07/19 05:43:39;;;;;;;6.90;1.10;;;22.90;99.90;;;;;;5308144;28;20102;-80
2022/07/19 05:46:10;;;;;;;5.50;0.60;;;23.20;99.90;;;;;;5308018;28;20031;-80
2022/07/19 05:48:41;;;;;;;3.58;0.88;;;23.10;99.90;;;;;;5308077;28;20072;-80
2022/07/19 05:51:12;;;;;;;6.18;1.20;;;23.10;99.90;;;;;;5308008;28;20066;-80
2022/07/19 05:53:42;;;;;;;2.88;0.82;;;23.00;99.90;;;;;;5308087;28;20020;-79
2022/07/19 05:56:13;;;;;;;4.15;0.50;;;23.10;99.90;;;;;;5308091;28;20106;-79
2022/07/19 05:58:44;;;;;;;2.25;0.60;;;23.20;99.90;;;;;;5307670;28;20114;-82
2022/07/19 06:01:18;;;;;;;1.42;0.40;;;23.10;99.90;;;;;;5307821;28;20126;-80
2022/07/19 06:03:51;;;;;;;2.17;0.63;;;22.80;99.90;;;;;;5307727;28;20032;-80
2022/07/19 06:06:25;;;;;;;3.88;0.47;;;22.80;99.90;;;;;;5307677;28;20022;-79
2022/07/19 06:08:56;;;;;;;3.70;0.68;;;23.30;99.90;;;;;;5288964;28;20039;-80
2022/07/19 06:11:28;;;;;;;4.05;0.85;;;23.70;99.90;;;;;;5295698;28;20032;-80
2022/07/19 06:13:58;;;;;;;2.15;0.70;;;23.80;99.90;;;;;;5293497;28;20027;-78
2022/07/19 06:16:29;;;;;;;2.83;0.75;;;23.90;99.90;;;;;;5293254;28;20020;-79
2022/07/19 06:19:00;;;;;;;4.70;1.20;;;23.90;99.90;;;;;;5292943;28;20035;-82
2022/07/19 06:21:31;;;;;;;2.33;0.73;;;23.40;99.90;;;;;;5293073;28;20547;-79
2022/07/19 06:24:02;;;;;;;3.65;0.70;;;23.40;99.90;;;;;;5293062;28;20040;-81
2022/07/19 06:26:33;;;;;;;5.57;0.63;;;23.50;99.90;;;;;;5293099;28;20095;-80
2022/07/19 06:29:04;;;;;;;4.38;0.70;;;23.60;99.90;;;;;;5293010;28;20379;-79
2022/07/19 06:31:35;;;;;;;3.50;1.00;;;23.60;99.90;;;;;;5292925;28;20024;-79
2022/07/19 06:34:06;;;;;;;2.92;0.80;;;22.90;99.90;;;;;;5292982;28;20015;-80
2022/07/19 06:36:36;;;;;;;5.07;1.45;;;23.60;99.90;;;;;;5274721;28;20031;-79
2022/07/19 06:39:07;;;;;;;4.15;1.80;;;23.40;99.90;;;;;;5292736;28;20159;-77
2022/07/19 06:41:38;;;;;;;1.52;0.68;;;23.90;99.90;;;;;;5292930;28;20425;-78
2022/07/19 06:44:09;;;;;;;4.38;0.68;;;24.00;99.90;;;;;;5293107;28;20374;-80
2022/07/19 06:46:40;;;;;;;8.68;2.15;;;24.20;99.90;;;;;;5292761;28;20024;-77
2022/07/19 06:49:11;;;;;;;4.68;1.10;;;24.30;99.90;;;;;;5292715;28;20513;-80
2022/07/19 06:51:41;;;;;;;6.97;3.08;;;24.10;99.90;;;;;;5292709;28;20153;-81
2022/07/19 06:54:12;;;;;;;4.32;1.30;;;23.70;99.90;;;;;;5274300;28;20034;-80
2022/07/19 06:56:43;;;;;;;3.65;1.45;;;23.30;99.90;;;;;;5292573;28;20024;-80
2022/07/19 06:59:14;;;;;;;7.68;1.40;;;23.40;99.90;;;;;;5292340;28;20538;-78
2022/07/19 07:01:44;;;;;;;1.90;0.70;;;24.20;99.90;;;;;;5292413;28;20019;-80
2022/07/19 07:04:15;;;;;;;3.05;1.08;;;24.30;99.90;;;;;;5292425;28;20110;-77
2022/07/19 07:06:46;;;;;;;8.25;1.17;;;24.70;99.90;;;;;;5292295;28;20020;-82
2022/07/19 07:09:17;;;;;;;4.68;0.70;;;24.70;99.90;;;;;;5292004;28;20079;-77
2022/07/19 07:11:48;;;;;;;3.42;0.90;;;24.60;99.90;;;;;;5292316;28;20016;-79
2022/07/19 07:14:19;;;;;;;2.47;0.65;;;24.70;99.90;;;;;;5292147;28;20043;-81
2022/07/19 07:16:49;;;;;;;3.08;0.70;;;24.80;99.90;;;;;;5292155;28;20128;-77
2022/07/19 07:19:20;;;;;;;1.63;0.45;;;24.70;99.90;;;;;;5291953;28;20578;-76
2022/07/19 07:21:51;;;;;;;5.47;1.00;;;24.70;99.90;;;;;;5290976;28;20094;-80
2022/07/19 07:24:22;;;;;;;6.90;0.90;;;25.10;99.90;;;;;;5291965;28;20471;-81
2022/07/19 07:26:53;;;;;;;1.70;0.90;;;24.80;99.90;;;;;;5291938;28;20019;-79
2022/07/19 07:32:04;;;;;;;4.63;0.50;;;25.00;99.90;;;;;;5502492;23;20517;-79
2022/07/19 07:34:35;;;;;;;5.78;0.50;;;25.20;99.90;;;;;;5203108;28;20026;-78
2022/07/19 07:37:06;;;;;;;4.25;0.40;;;25.20;99.90;;;;;;5187988;28;20057;-78
2022/07/19 07:39:38;;;;;;;1.83;0.57;;;24.50;99.90;;;;;;5187805;28;20038;-80
2022/07/19 07:42:08;;;;;;;6.20;0.63;;;24.80;99.90;;;;;;5187811;28;20033;-79
2022/07/19 07:44:40;;;;;;;3.25;0.50;;;25.20;99.90;;;;;;5187992;28;20474;-80
2022/07/19 07:47:11;;;;;;;2.63;0.70;;;25.30;99.90;;;;;;5202943;28;20056;-79
2022/07/19 07:49:42;;;;;;;2.50;0.57;;;25.20;99.90;;;;;;5187679;28;20034;-78
2022/07/19 07:52:13;;;;;;;1.58;0.90;;;25.20;99.90;;;;;;5187699;28;20033;-80
2022/07/19 07:54:43;;;;;;;2.45;0.60;;;25.10;99.90;;;;;;5202825;28;20385;-81
2022/07/19 07:57:14;;;;;;;3.42;0.60;;;25.50;99.90;;;;;;5187589;28;20077;-81
2022/07/19 07:59:45;;;;;;;1.73;0.50;;;24.70;99.90;;;;;;5187583;28;20030;-79
2022/07/19 08:02:16;;;;;;;3.13;0.45;;;24.70;99.90;;;;;;5187177;28;20113;-82
2022/07/19 08:04:47;;;;;;;1.88;0.70;;;24.80;99.90;;;;;;5187456;28;20105;-82
2022/07/19 08:07:17;;;;;;;3.90;0.70;;;24.80;99.90;;;;;;5187511;28;20029;-81
2022/07/19 08:09:48;;;;;;;2.45;0.60;;;24.70;99.90;;;;;;5187374;28;20030;-83
2022/07/19 08:12:19;;;;;;;5.25;0.60;;;25.00;99.90;;;;;;5186002;28;20501;-78
2022/07/19 08:14:50;;;;;;;5.72;0.82;;;25.00;99.90;;;;;;5187449;28;20029;-79
2022/07/19 08:17:21;;;;;;;4.20;0.93;;;25.30;99.90;;;;;;5185864;28;20026;-78
2022/07/19 08:19:51;;;;;;;2.58;0.90;;;25.20;99.90;;;;;;5185987;28;20378;-78
2022/07/19 08:22:22;;;;;;;2.75;1.30;;;25.80;99.90;;;;;;5186925;28;20029;-80
2022/07/19 08:24:53;;;;;;;4.18;2.45;;;25.90;99.90;;;;;;5169712;28;20100;-82
2022/07/19 08:27:24;;;;;;;4.10;2.08;;;26.10;99.90;;;;;;5187220;28;20386;-79
2022/07/19 08:29:55;;;;;;;3.47;1.10;;;26.20;99.90;;;;;;5185544;28;20030;-80
2022/07/19 08:32:26;;;;;;;4.55;1.33;;;26.20;99.90;;;;;;5186769;28;20121;-80
2022/07/19 08:34:57;;;;;;;6.97;0.68;;;26.20;99.90;;;;;;5186658;28;20026;-79
2022/07/19 08:37:28;;;;;;;4.18;0.80;;;26.10;99.90;;;;;;5187180;28;20037;-79
2022/07/19 08:39:59;;;;;;;4.35;0.70;;;26.10;99.90;;;;;;5186993;28;20046;-79
2022/07/19 08:42:30;;;;;;;4.13;0.65;;;26.20;99.90;;;;;;5186902;28;20037;-81
2022/07/19 08:45:04;;;;;;;8.35;1.85;;;26.30;99.90;;;;;;5186761;28;20034;-79
2022/07/19 08:47:36;;;;;;;2.80;1.00;;;26.20;99.90;;;;;;5186815;28;20026;-79
2022/07/19 08:50:09;;;;;;;13.18;1.80;;;26.10;99.90;;;;;;5186781;28;20026;-81
2022/07/19 08:52:40;;;;;;;3.92;0.70;;;25.40;99.90;;;;;;5186798;28;20481;-79
2022/07/19 08:55:11;;;;;;;1.80;0.63;;;25.40;99.90;;;;;;5186674;28;20025;-82
2022/07/19 08:57:57;;;;;;;6.00;2.28;;;25.80;99.90;;;;;;5186818;28;20026;-79
2022/07/19 09:00:30;;;;;;;5.28;3.08;;;26.10;99.90;;;;;;5186431;28;20037;-80
2022/07/19 09:03:06;;;;;;;5.57;2.20;;;25.40;99.90;;;;;;5185275;28;20537;-79
2022/07/19 09:05:37;;;;;;;7.63;1.80;;;24.80;99.90;;;;;;5186720;28;20029;-78
2022/07/19 09:08:12;;;;;;;1.92;0.60;;;24.80;99.90;;;;;;5185224;28;20378;-79
2022/07/19 09:11:14;;;;;;;7.25;1.98;;;24.90;99.90;;;;;;5186467;28;20025;-79
2022/07/19 09:13:36;;;;;;;6.53;1.80;;;25.00;99.90;;;;;;5186516;28;20564;-80
2022/07/19 09:16:07;;;;;;;6.28;2.97;;;25.40;99.90;;;;;;5186550;28;20063;-81
2022/07/19 09:18:38;;;;;;;6.10;1.40;;;25.20;99.90;;;;;;5186299;28;20103;-81
2022/07/19 09:21:09;;;;;;;7.68;0.70;;;25.40;99.90;;;;;;5186606;28;20025;-78
2022/07/19 09:23:41;;;;;;;2.50;0.60;;;25.60;99.90;;;;;;5186695;28;20022;-81
2022/07/19 09:26:12;;;;;;;2.53;0.85;;;25.10;99.90;;;;;;5186320;28;20040;-79
2022/07/19 09:28:43;;;;;;;3.00;1.23;;;25.60;99.90;;;;;;5185142;28;20477;-78
2022/07/19 09:31:14;;;;;;;5.15;1.45;;;26.20;99.90;;;;;;5185667;28;20054;-79
2022/07/19 09:33:52;;;;;;;3.03;0.82;;;26.30;99.90;;;;;;5186540;28;20029;-78
2022/07/19 09:36:23;;;;;;;3.08;0.70;;;26.20;99.90;;;;;;5186667;28;20046;-78
2022/07/19 09:38:53;;;;;;;3.88;0.50;;;26.10;99.90;;;;;;5186246;28;20145;-78
2022/07/19 09:41:24;;;;;;;4.10;0.75;;;26.30;99.90;;;;;;5186118;28;20469;-81
2022/07/19 09:44:02;;;;;;;3.15;0.85;;;26.70;99.90;;;;;;5186470;28;20060;-79
2022/07/19 09:46:38;;;;;;;3.03;0.80;;;26.80;99.90;;;;;;5188872;28;20413;-77
2022/07/19 09:49:12;;;;;;;1.75;0.70;;;26.80;99.90;;;;;;5190088;28;20026;-79
2022/07/19 09:51:52;;;;;;;2.33;0.93;;;26.10;99.90;;;;;;5189847;28;20069;-79
2022/07/19 09:54:26;;;;;;;3.60;1.00;;;26.90;99.90;;;;;;5190198;28;20044;-79
2022/07/19 09:56:59;;;;;;;2.00;0.65;;;26.70;99.90;;;;;;5189869;28;20022;-79
2022/07/19 09:59:31;;;;;;;2.33;1.00;;;27.00;99.90;;;;;;5189738;28;20030;-79
2022/07/19 10:02:02;;;;;;;3.40;1.08;;;27.10;99.90;;;;;;5189688;28;20061;-81
2022/07/19 10:04:35;;;;;;;5.28;1.90;;;26.80;99.90;;;;;;5189941;28;20064;-79
2022/07/19 10:07:06;;;;;;;7.72;1.88;;;26.80;99.90;;;;;;5189637;28;20026;-79
2022/07/19 10:09:37;;;;;;;4.70;1.30;;;26.50;99.90;;;;;;5189881;28;20029;-80
2022/07/19 10:12:08;;;;;;;6.90;1.30;;;26.80;99.90;;;;;;5189719;28;20026;-79
2022/07/19 10:14:39;;;;;;;6.03;1.10;;;26.80;99.90;;;;;;5189923;28;20026;-81
2022/07/19 10:17:34;;;;;;;5.63;1.30;;;26.60;99.90;;;;;;5189376;28;20037;-80
2022/07/19 10:20:07;;;;;;;4.35;1.27;;;27.60;99.90;;;;;;5189247;28;20449;-78
2022/07/19 10:22:40;;;;;;;6.05;1.75;;;26.90;99.90;;;;;;5188172;28;20057;-78
2022/07/19 10:25:12;;;;;;;5.22;1.33;;;26.70;99.90;;;;;;5189234;28;20030;-81
2022/07/19 10:27:45;;;;;;;5.50;2.22;;;26.70;99.90;;;;;;5189630;28;20029;-80
2022/07/19 10:30:17;;;;;;;4.57;0.90;;;27.20;99.90;;;;;;5187547;28;20064;-79
2022/07/19 10:32:50;;;;;;;6.50;1.17;;;27.10;99.90;;;;;;5189032;28;20069;-82
2022/07/19 10:35:30;;;;;;;8.65;1.17;;;26.80;99.90;;;;;;5187772;28;20086;-78
2022/07/19 10:38:00;;;;;;;;;;;27.50;99.90;;;;;;5188285;28;20025;-79
2022/07/19 10:40:58;;;;;;;3.65;1.30;;;27.10;99.90;;;;;;5188778;28;20281;-78
2022/07/19 10:43:29;;;;;;;6.35;0.77;;;27.20;99.90;;;;;;5186073;28;20508;-78
2022/07/19 10:46:01;;;;;;;4.50;1.10;;;27.00;99.90;;;;;;5189234;28;20026;-81
2022/07/19 10:48:39;;;;;;;2.17;0.80;;;27.20;99.90;;;;;;5188748;28;20110;-80
2022/07/19 10:51:12;;;;;;;5.88;0.98;;;27.20;99.90;;;;;;5188744;28;20026;-81
2022/07/19 10:53:42;;;;;;;3.75;2.17;;;26.60;99.90;;;;;;5188850;28;20022;-78
2022/07/19 10:56:23;;;;;;;5.47;2.70;;;26.50;99.90;;;;;;5188688;28;20030;-78
2022/07/19 10:59:00;;;;;;;7.45;2.08;;;27.20;99.90;;;;;;5188852;28;20033;-80
2022/07/19 11:01:34;;;;;;;2.60;0.65;;;27.00;99.90;;;;;;5188611;28;20038;-80
2022/07/19 11:04:41;;;;;;;5.07;1.73;;;26.60;99.90;;;;;;5188668;28;20053;-79
2022/07/19 11:07:15;;;;;;;2.25;0.88;;;27.60;99.90;;;;;;5106192;29;20035;-78
2022/07/19 11:09:50;;;;;;;2.88;1.85;;;27.20;99.90;;;;;;5173114;28;20038;-80
2022/07/19 11:12:32;;;;;;;5.70;1.90;;;27.30;99.90;;;;;;5188944;28;20520;-79
2022/07/19 11:15:07;;;;;;;7.70;2.67;;;26.80;99.90;;;;;;5188278;28;20032;-78
2022/07/19 11:17:38;;;;;;;3.45;1.33;;;26.70;99.90;;;;;;5187113;28;20053;-78
2022/07/19 11:20:11;;;;;;;6.75;1.55;;;26.50;99.90;;;;;;5188350;28;20045;-79
2022/07/19 11:22:46;;;;;;;4.00;1.38;;;27.00;99.90;;;;;;5188155;28;20028;-80
2022/07/19 11:25:26;;;;;;;9.50;1.60;;;27.10;99.90;;;;;;5186950;28;20059;-80
2022/07/19 11:27:58;;;;;;;5.40;1.35;;;26.90;99.90;;;;;;5188048;28;20064;-79
2022/07/19 11:30:32;;;;;;;11.27;1.77;;;26.90;99.90;;;;;;5186580;28;20063;-79
2022/07/19 11:33:05;;;;;;;5.78;1.58;;;27.60;99.90;;;;;;5188013;28;20482;-79
2022/07/19 11:35:36;;;;;;;5.20;1.55;;;27.60;99.90;;;;;;5186743;28;20051;-80
2022/07/19 11:38:06;;;;;;;8.23;1.30;;;26.40;99.90;;;;;;5187946;28;20470;-79
2022/07/19 11:40:37;;;;;;;6.78;2.00;;;27.50;99.90;;;;;;5187742;28;20478;-80
2022/07/19 11:43:08;;;;;;;6.50;1.77;;;27.50;99.90;;;;;;5187830;28;20024;-78
2022/07/19 11:45:47;;;;;;;6.05;1.30;;;27.70;99.90;;;;;;5187749;28;20084;-78
2022/07/19 11:48:29;;;;;;;3.75;1.05;;;27.70;99.90;;;;;;5186484;28;20022;-80
2022/07/19 11:51:06;;;;;;;4.05;0.95;;;26.50;99.90;;;;;;5187721;28;20073;-79
2022/07/19 11:53:39;;;;;;;4.97;1.30;;;26.30;99.90;;;;;;5187445;28;20069;-78
2022/07/19 11:56:19;;;;;;;9.95;1.05;;;27.40;99.90;;;;;;5187592;28;20022;-79
2022/07/19 11:58:52;;;;;;;4.28;1.33;;;27.30;99.90;;;;;;5187362;28;20069;-80
2022/07/19 12:01:31;;;;;;;6.00;1.58;;;26.50;99.90;;;;;;5187171;28;20037;-78
2022/07/19 12:04:08;;;;;;;11.63;2.10;;;26.30;99.90;;;;;;5187802;28;20168;-79
2022/07/19 12:06:43;;;;;;;6.38;1.30;;;26.60;99.90;;;;;;5187322;28;20417;-78
2022/07/19 12:09:28;;;;;;;3.40;1.45;;;27.30;99.90;;;;;;5187107;28;20045;-77
2022/07/19 12:11:59;;;;;;;3.15;1.67;;;27.00;99.90;;;;;;5187199;28;20410;-81
2022/07/19 12:14:35;;;;;;;4.82;1.17;;;27.40;99.90;;;;;;5187311;28;20018;-82
2022/07/19 12:17:16;;;;;;;5.82;1.42;;;27.60;99.90;;;;;;5187396;28;20030;-78
2022/07/19 12:32:34;;;;;;;1.88;1.02;;;27.30;99.90;;;;;;5307780;27;20447;-75
2022/07/19 12:35:06;;;;;;;4.15;1.33;;;27.70;99.90;;;;;;5307712;28;20023;-72
2022/07/19 12:37:41;;;;;;;4.60;1.02;;;27.90;99.90;;;;;;5307672;28;20474;-72
2022/07/19 12:40:21;;;;;;;8.35;1.15;;;27.40;99.90;;;;;;5307491;27;20035;-75
2022/07/19 12:43:03;;;;;;;9.93;1.30;;;26.20;99.90;;;;;;5307667;27;20050;-74
2022/07/19 12:45:46;;;;;;;5.78;0.88;;;26.70;99.90;;;;;;5307499;27;20149;-73
2022/07/19 12:48:17;;;;;;;8.77;1.25;;;27.50;99.90;;;;;;5307396;28;20027;-71
2022/07/19 12:50:49;;;;;;;5.10;0.80;;;28.00;99.90;;;;;;5307452;28;20026;-70
2022/07/19 12:53:21;;;;;;;3.03;0.90;;;27.20;99.90;;;;;;5307235;28;20023;-75
2022/07/19 12:55:52;;;;;;;5.95;0.80;;;27.00;99.90;;;;;;5307170;28;20032;-71
2022/07/19 13:01:12;;;;;;;4.68;1.00;;;26.30;99.90;;;;;;5307105;27;20074;-72
2022/07/19 13:03:43;;;;;;;5.28;1.13;;;27.40;99.90;;;;;;5307076;28;20042;-74
2022/07/19 13:06:13;;;;;;;4.18;0.85;;;26.90;99.90;;;;;;5307168;28;20031;-75
2022/07/19 13:08:44;;;;;;;5.10;1.20;;;27.40;99.90;;;;;;5306991;28;20107;-74
2022/07/19 13:11:16;;;;;;;3.38;0.80;;;27.60;99.90;;;;;;5307076;27;20026;-74
2022/07/19 13:13:47;;;;;;;5.22;1.10;;;27.60;99.90;;;;;;5306823;28;20052;-74
2022/07/19 13:16:18;;;;;;;5.38;1.00;;;27.60;99.90;;;;;;5306859;28;20390;-72
2022/07/19 13:18:53;;;;;;;2.83;0.73;;;27.70;99.90;;;;;;5306827;27;20034;-71
2022/07/19 13:21:24;;;;;;;3.45;0.90;;;27.50;99.90;;;;;;5306682;27;20039;-72
2022/07/19 13:23:55;;;;;;;6.03;0.80;;;27.20;99.90;;;;;;5306576;27;20106;-73
2022/07/19 13:26:26;;;;;;;5.10;1.00;;;26.90;99.90;;;;;;5306355;27;20169;-71
2022/07/19 13:28:57;;;;;;;5.53;1.02;;;26.80;99.90;;;;;;5304093;27;20016;-71
2022/07/19 13:31:27;;;;;;;2.88;0.90;;;26.80;99.90;;;;;;5299244;27;20103;-71
2022/07/19 13:33:58;;;;;;;4.65;0.88;;;26.40;99.90;;;;;;5292232;28;20020;-75
2022/07/19 13:36:30;;;;;;;3.83;1.00;;;26.60;99.90;;;;;;5292334;28;20047;-73
2022/07/19 13:39:00;;;;;;;4.40;1.00;;;27.60;99.90;;;;;;5291505;28;20099;-71
2022/07/19 13:41:31;;;;;;;6.70;0.90;;;28.00;99.90;;;;;;5270937;28;20162;-76
2022/07/19 13:44:02;;;;;;;4.78;1.00;;;26.90;99.90;;;;;;5270874;28;20487;-71
2022/07/19 13:46:33;;;;;;;4.32;0.80;;;27.00;99.90;;;;;;5271137;28;20032;-75